sensor_id;sensor_type;location;lat;lon;timestamp;P1;durP1;ratioP1;P2;durP2;ratioP2
25657;SDS011;13517;59.320;18.042;2024-01-15T00:02:07;6.20;;;0.73;;
25657;SDS011;13517;59.320;18.042;2024-01-15T00:04:40;3.03;;;0.50;;
25657;SDS011;13517;59.320;18.042;2024-01-15T00:07:06;1.13;;;0.65;;
25657;SDS011;13517;59.320;18.042;2024-01-15T00:09:31;2.55;;;0.73;;
25657;SDS011;13517;59.320;18.042;2024-01-15T00:11:57;3.03;;;0.68;;
25657;SDS011;13517;59.320;18.042;2024-01-15T00:14:22;1.20;;;0.55;;
25657;SDS011;13517;59.320;18.042;2024-01-15T00:16:48;3.75;;;0.80;;
25657;SDS011;13517;59.320;18.042;2024-01-15T00:19:16;2.33;;;0.98;;
25657;SDS011;13517;59.320;18.042;2024-01-15T00:21:44;5.43;;;0.65;;
25657;SDS011;13517;59.320;18.042;2024-01-15T00:24:09;3.53;;;1.02;;
25657;SDS011;13517;59.320;18.042;2024-01-15T00:26:35;2.38;;;0.68;;
25657;SDS011;13517;59.320;18.042;2024-01-15T00:29:00;3.35;;;0.90;;
25657;SDS011;13517;59.320;18.042;2024-01-15T00:31:26;4.32;;;0.73;;
25657;SDS011;13517;59.320;18.042;2024-01-15T00:33:52;3.65;;;0.70;;
25657;SDS011;13517;59.320;18.042;2024-01-15T00:36:17;1.50;;;1.00;;
25657;SDS011;13517;59.320;18.042;2024-01-15T00:38:43;4.00;;;0.90;;
25657;SDS011;13517;59.320;18.042;2024-01-15T00:41:09;1.30;;;0.60;;
25657;SDS011;13517;59.320;18.042;2024-01-15T00:43:35;7.07;;;0.80;;
25657;SDS011;13517;59.320;18.042;2024-01-15T00:46:03;3.65;;;0.82;;
25657;SDS011;13517;59.320;18.042;2024-01-15T00:48:29;5.88;;;1.00;;
25657;SDS011;13517;59.320;18.042;2024-01-15T00:50:55;2.30;;;0.88;;
25657;SDS011;13517;59.320;18.042;2024-01-15T00:53:20;1.48;;;0.70;;
25657;SDS011;13517;59.320;18.042;2024-01-15T00:55:48;2.15;;;0.70;;
25657;SDS011;13517;59.320;18.042;2024-01-15T00:58:14;1.48;;;0.70;;
25657;SDS011;13517;59.320;18.042;2024-01-15T01:00:39;4.07;;;0.70;;
25657;SDS011;13517;59.320;18.042;2024-01-15T01:03:05;2.08;;;0.80;;
25657;SDS011;13517;59.320;18.042;2024-01-15T01:05:31;3.72;;;0.82;;
25657;SDS011;13517;59.320;18.042;2024-01-15T01:07:56;4.60;;;0.60;;
25657;SDS011;13517;59.320;18.042;2024-01-15T01:10:22;5.57;;;0.90;;
25657;SDS011;13517;59.320;18.042;2024-01-15T01:12:47;1.88;;;0.75;;
25657;SDS011;13517;59.320;18.042;2024-01-15T01:15:12;1.73;;;0.60;;
25657;SDS011;13517;59.320;18.042;2024-01-15T01:17:38;4.18;;;0.95;;
25657;SDS011;13517;59.320;18.042;2024-01-15T01:20:03;2.30;;;0.50;;
25657;SDS011;13517;59.320;18.042;2024-01-15T01:22:31;3.33;;;0.80;;
25657;SDS011;13517;59.320;18.042;2024-01-15T01:24:56;5.18;;;0.60;;
25657;SDS011;13517;59.320;18.042;2024-01-15T01:27:22;2.40;;;1.25;;
25657;SDS011;13517;59.320;18.042;2024-01-15T01:29:47;6.15;;;0.70;;
25657;SDS011;13517;59.320;18.042;2024-01-15T01:32:12;3.25;;;0.60;;
25657;SDS011;13517;59.320;18.042;2024-01-15T01:34:41;1.85;;;0.52;;
25657;SDS011;13517;59.320;18.042;2024-01-15T01:37:10;5.10;;;0.80;;
25657;SDS011;13517;59.320;18.042;2024-01-15T01:39:39;4.40;;;0.98;;
25657;SDS011;13517;59.320;18.042;2024-01-15T01:42:05;3.17;;;0.90;;
25657;SDS011;13517;59.320;18.042;2024-01-15T01:44:30;4.57;;;0.55;;
25657;SDS011;13517;59.320;18.042;2024-01-15T01:46:57;3.88;;;0.90;;
25657;SDS011;13517;59.320;18.042;2024-01-15T01:49:23;2.97;;;0.60;;
25657;SDS011;13517;59.320;18.042;2024-01-15T01:51:50;0.85;;;0.60;;
25657;SDS011;13517;59.320;18.042;2024-01-15T01:54:16;6.60;;;0.85;;
25657;SDS011;13517;59.320;18.042;2024-01-15T01:56:42;8.70;;;0.55;;
25657;SDS011;13517;59.320;18.042;2024-01-15T01:59:08;4.35;;;0.60;;
25657;SDS011;13517;59.320;18.042;2024-01-15T02:01:36;1.40;;;0.57;;
25657;SDS011;13517;59.320;18.042;2024-01-15T02:04:01;1.35;;;0.50;;
25657;SDS011;13517;59.320;18.042;2024-01-15T02:06:28;1.77;;;0.68;;
25657;SDS011;13517;59.320;18.042;2024-01-15T02:08:54;1.08;;;0.60;;
25657;SDS011;13517;59.320;18.042;2024-01-15T02:11:19;1.58;;;0.60;;
25657;SDS011;13517;59.320;18.042;2024-01-15T02:13:45;2.65;;;0.50;;
25657;SDS011;13517;59.320;18.042;2024-01-15T02:16:11;2.05;;;0.68;;
25657;SDS011;13517;59.320;18.042;2024-01-15T02:18:40;4.57;;;0.60;;
25657;SDS011;13517;59.320;18.042;2024-01-15T02:21:06;5.70;;;0.77;;
25657;SDS011;13517;59.320;18.042;2024-01-15T02:23:31;1.15;;;0.80;;
25657;SDS011;13517;59.320;18.042;2024-01-15T02:25:57;2.00;;;0.65;;
25657;SDS011;13517;59.320;18.042;2024-01-15T02:28:22;0.80;;;0.60;;
25657;SDS011;13517;59.320;18.042;2024-01-15T02:30:47;4.85;;;0.75;;
25657;SDS011;13517;59.320;18.042;2024-01-15T02:33:13;2.38;;;0.65;;
25657;SDS011;13517;59.320;18.042;2024-01-15T02:35:38;0.82;;;0.40;;
25657;SDS011;13517;59.320;18.042;2024-01-15T02:38:04;2.80;;;0.57;;
25657;SDS011;13517;59.320;18.042;2024-01-15T02:40:30;0.88;;;0.43;;
25657;SDS011;13517;59.320;18.042;2024-01-15T02:42:56;0.82;;;0.52;;
25657;SDS011;13517;59.320;18.042;2024-01-15T02:45:21;4.78;;;0.68;;
25657;SDS011;13517;59.320;18.042;2024-01-15T02:47:48;8.43;;;1.25;;
25657;SDS011;13517;59.320;18.042;2024-01-15T02:50:13;4.25;;;0.63;;
25657;SDS011;13517;59.320;18.042;2024-01-15T02:52:39;1.13;;;0.77;;
25657;SDS011;13517;59.320;18.042;2024-01-15T02:55:04;4.88;;;0.63;;
25657;SDS011;13517;59.320;18.042;2024-01-15T02:57:30;3.03;;;0.50;;
25657;SDS011;13517;59.320;18.042;2024-01-15T02:59:55;9.75;;;1.10;;
25657;SDS011;13517;59.320;18.042;2024-01-15T03:02:21;3.97;;;0.63;;
25657;SDS011;13517;59.320;18.042;2024-01-15T03:04:46;1.77;;;0.60;;
25657;SDS011;13517;59.320;18.042;2024-01-15T03:07:12;1.33;;;0.70;;
25657;SDS011;13517;59.320;18.042;2024-01-15T03:09:37;3.38;;;0.80;;
25657;SDS011;13517;59.320;18.042;2024-01-15T03:12:03;5.32;;;0.80;;
25657;SDS011;13517;59.320;18.042;2024-01-15T03:14:29;4.68;;;0.90;;
25657;SDS011;13517;59.320;18.042;2024-01-15T03:16:54;4.07;;;0.88;;
25657;SDS011;13517;59.320;18.042;2024-01-15T03:19:20;2.10;;;0.50;;
25657;SDS011;13517;59.320;18.042;2024-01-15T03:21:45;3.53;;;0.90;;
25657;SDS011;13517;59.320;18.042;2024-01-15T03:24:11;1.45;;;0.80;;
25657;SDS011;13517;59.320;18.042;2024-01-15T03:26:36;1.27;;;0.70;;
25657;SDS011;13517;59.320;18.042;2024-01-15T03:29:02;2.88;;;0.70;;
25657;SDS011;13517;59.320;18.042;2024-01-15T03:31:27;3.20;;;0.63;;
25657;SDS011;13517;59.320;18.042;2024-01-15T03:33:53;2.63;;;0.90;;
25657;SDS011;13517;59.320;18.042;2024-01-15T03:36:18;5.68;;;0.82;;
25657;SDS011;13517;59.320;18.042;2024-01-15T03:38:43;0.90;;;0.65;;
25657;SDS011;13517;59.320;18.042;2024-01-15T03:41:09;2.17;;;0.70;;
25657;SDS011;13517;59.320;18.042;2024-01-15T03:43:34;4.07;;;0.82;;
25657;SDS011;13517;59.320;18.042;2024-01-15T03:46:00;1.90;;;0.70;;
25657;SDS011;13517;59.320;18.042;2024-01-15T03:48:25;5.55;;;0.95;;
25657;SDS011;13517;59.320;18.042;2024-01-15T03:50:50;5.30;;;0.88;;
25657;SDS011;13517;59.320;18.042;2024-01-15T03:53:16;1.95;;;0.63;;
25657;SDS011;13517;59.320;18.042;2024-01-15T03:55:42;1.40;;;0.85;;
25657;SDS011;13517;59.320;18.042;2024-01-15T03:58:07;0.90;;;0.60;;
25657;SDS011;13517;59.320;18.042;2024-01-15T04:00:33;2.70;;;0.80;;
25657;SDS011;13517;59.320;18.042;2024-01-15T04:02:58;1.23;;;0.93;;
25657;SDS011;13517;59.320;18.042;2024-01-15T04:05:23;1.55;;;0.63;;
25657;SDS011;13517;59.320;18.042;2024-01-15T04:07:49;2.03;;;1.02;;
25657;SDS011;13517;59.320;18.042;2024-01-15T04:10:14;5.85;;;1.33;;
25657;SDS011;13517;59.320;18.042;2024-01-15T04:12:39;1.30;;;0.75;;
25657;SDS011;13517;59.320;18.042;2024-01-15T04:15:05;3.05;;;1.05;;
25657;SDS011;13517;59.320;18.042;2024-01-15T04:17:31;4.38;;;1.20;;
25657;SDS011;13517;59.320;18.042;2024-01-15T04:19:56;3.72;;;1.25;;
25657;SDS011;13517;59.320;18.042;2024-01-15T04:22:23;5.65;;;1.30;;
25657;SDS011;13517;59.320;18.042;2024-01-15T04:24:48;3.03;;;1.17;;
25657;SDS011;13517;59.320;18.042;2024-01-15T04:27:14;4.80;;;1.98;;
25657;SDS011;13517;59.320;18.042;2024-01-15T04:29:39;1.35;;;0.75;;
25657;SDS011;13517;59.320;18.042;2024-01-15T04:32:04;4.22;;;1.55;;
25657;SDS011;13517;59.320;18.042;2024-01-15T04:34:30;1.92;;;1.15;;
25657;SDS011;13517;59.320;18.042;2024-01-15T04:36:55;2.72;;;1.27;;
25657;SDS011;13517;59.320;18.042;2024-01-15T04:39:21;2.03;;;1.15;;
25657;SDS011;13517;59.320;18.042;2024-01-15T04:41:47;1.50;;;1.20;;
25657;SDS011;13517;59.320;18.042;2024-01-15T04:44:12;5.30;;;1.42;;
25657;SDS011;13517;59.320;18.042;2024-01-15T04:46:38;9.13;;;1.80;;
25657;SDS011;13517;59.320;18.042;2024-01-15T04:49:03;8.35;;;1.67;;
25657;SDS011;13517;59.320;18.042;2024-01-15T04:51:29;2.13;;;1.20;;
25657;SDS011;13517;59.320;18.042;2024-01-15T04:53:54;4.20;;;1.40;;
25657;SDS011;13517;59.320;18.042;2024-01-15T04:56:19;3.28;;;1.92;;
25657;SDS011;13517;59.320;18.042;2024-01-15T04:58:45;3.28;;;0.90;;
25657;SDS011;13517;59.320;18.042;2024-01-15T05:01:11;5.28;;;1.50;;
25657;SDS011;13517;59.320;18.042;2024-01-15T05:03:37;4.15;;;1.83;;
25657;SDS011;13517;59.320;18.042;2024-01-15T05:06:02;4.03;;;1.30;;
25657;SDS011;13517;59.320;18.042;2024-01-15T05:08:28;1.45;;;1.25;;
25657;SDS011;13517;59.320;18.042;2024-01-15T05:10:53;6.00;;;1.73;;
25657;SDS011;13517;59.320;18.042;2024-01-15T05:13:18;5.13;;;1.98;;
25657;SDS011;13517;59.320;18.042;2024-01-15T05:15:44;2.58;;;1.55;;
25657;SDS011;13517;59.320;18.042;2024-01-15T05:18:10;3.80;;;1.30;;
25657;SDS011;13517;59.320;18.042;2024-01-15T05:20:35;2.65;;;1.67;;
25657;SDS011;13517;59.320;18.042;2024-01-15T05:23:01;5.15;;;1.40;;
25657;SDS011;13517;59.320;18.042;2024-01-15T05:25:26;5.00;;;1.30;;
25657;SDS011;13517;59.320;18.042;2024-01-15T05:27:52;9.75;;;1.90;;
25657;SDS011;13517;59.320;18.042;2024-01-15T05:30:17;3.28;;;1.77;;
25657;SDS011;13517;59.320;18.042;2024-01-15T05:32:42;4.32;;;2.20;;
25657;SDS011;13517;59.320;18.042;2024-01-15T05:35:08;7.80;;;1.73;;
25657;SDS011;13517;59.320;18.042;2024-01-15T05:37:33;2.28;;;1.40;;
25657;SDS011;13517;59.320;18.042;2024-01-15T05:39:59;7.35;;;1.90;;
25657;SDS011;13517;59.320;18.042;2024-01-15T05:42:24;5.00;;;1.70;;
25657;SDS011;13517;59.320;18.042;2024-01-15T05:44:54;3.58;;;1.60;;
25657;SDS011;13517;59.320;18.042;2024-01-15T05:47:20;2.38;;;1.60;;
25657;SDS011;13517;59.320;18.042;2024-01-15T05:49:45;2.15;;;1.60;;
25657;SDS011;13517;59.320;18.042;2024-01-15T05:52:10;3.17;;;1.73;;
25657;SDS011;13517;59.320;18.042;2024-01-15T05:54:36;2.05;;;1.48;;
25657;SDS011;13517;59.320;18.042;2024-01-15T05:57:01;3.28;;;1.60;;
25657;SDS011;13517;59.320;18.042;2024-01-15T05:59:27;2.90;;;1.70;;
25657;SDS011;13517;59.320;18.042;2024-01-15T06:01:53;4.28;;;1.52;;
25657;SDS011;13517;59.320;18.042;2024-01-15T06:04:18;3.25;;;2.03;;
25657;SDS011;13517;59.320;18.042;2024-01-15T06:06:44;10.55;;;3.10;;
25657;SDS011;13517;59.320;18.042;2024-01-15T06:09:09;1.98;;;1.50;;
25657;SDS011;13517;59.320;18.042;2024-01-15T06:11:35;7.35;;;2.17;;
25657;SDS011;13517;59.320;18.042;2024-01-15T06:14:00;4.18;;;1.63;;
25657;SDS011;13517;59.320;18.042;2024-01-15T06:16:26;3.28;;;1.38;;
25657;SDS011;13517;59.320;18.042;2024-01-15T06:18:51;2.58;;;1.60;;
25657;SDS011;13517;59.320;18.042;2024-01-15T06:21:17;2.97;;;1.92;;
25657;SDS011;13517;59.320;18.042;2024-01-15T06:23:42;4.57;;;1.27;;
25657;SDS011;13517;59.320;18.042;2024-01-15T06:26:08;2.63;;;1.45;;
25657;SDS011;13517;59.320;18.042;2024-01-15T06:28:36;5.00;;;2.15;;
25657;SDS011;13517;59.320;18.042;2024-01-15T06:31:01;6.22;;;1.73;;
25657;SDS011;13517;59.320;18.042;2024-01-15T06:33:27;4.63;;;2.05;;
25657;SDS011;13517;59.320;18.042;2024-01-15T06:35:52;5.43;;;2.30;;
25657;SDS011;13517;59.320;18.042;2024-01-15T06:38:17;6.03;;;1.70;;
25657;SDS011;13517;59.320;18.042;2024-01-15T06:40:43;4.68;;;2.03;;
25657;SDS011;13517;59.320;18.042;2024-01-15T06:43:10;6.93;;;2.90;;
25657;SDS011;13517;59.320;18.042;2024-01-15T06:45:36;6.15;;;2.67;;
25657;SDS011;13517;59.320;18.042;2024-01-15T06:48:02;4.40;;;2.22;;
25657;SDS011;13517;59.320;18.042;2024-01-15T06:50:27;8.00;;;2.42;;
25657;SDS011;13517;59.320;18.042;2024-01-15T06:52:53;5.30;;;2.50;;
25657;SDS011;13517;59.320;18.042;2024-01-15T06:55:18;4.22;;;2.40;;
25657;SDS011;13517;59.320;18.042;2024-01-15T06:57:44;4.40;;;2.30;;
25657;SDS011;13517;59.320;18.042;2024-01-15T07:00:09;8.35;;;2.50;;
25657;SDS011;13517;59.320;18.042;2024-01-15T07:02:35;5.13;;;2.45;;
25657;SDS011;13517;59.320;18.042;2024-01-15T07:05:00;5.75;;;2.35;;
25657;SDS011;13517;59.320;18.042;2024-01-15T07:07:26;7.00;;;3.17;;
25657;SDS011;13517;59.320;18.042;2024-01-15T07:09:54;4.18;;;2.10;;
25657;SDS011;13517;59.320;18.042;2024-01-15T07:12:20;8.32;;;2.78;;
25657;SDS011;13517;59.320;18.042;2024-01-15T07:14:45;5.43;;;2.13;;
25657;SDS011;13517;59.320;18.042;2024-01-15T07:17:11;6.78;;;2.97;;
25657;SDS011;13517;59.320;18.042;2024-01-15T07:19:36;4.60;;;2.30;;
25657;SDS011;13517;59.320;18.042;2024-01-15T07:22:02;9.70;;;2.40;;
25657;SDS011;13517;59.320;18.042;2024-01-15T07:24:27;3.75;;;2.17;;
25657;SDS011;13517;59.320;18.042;2024-01-15T07:26:52;6.93;;;2.58;;
25657;SDS011;13517;59.320;18.042;2024-01-15T07:29:18;9.07;;;1.90;;
25657;SDS011;13517;59.320;18.042;2024-01-15T07:31:47;7.15;;;1.95;;
25657;SDS011;13517;59.320;18.042;2024-01-15T07:34:14;5.07;;;1.85;;
25657;SDS011;13517;59.320;18.042;2024-01-15T07:36:39;2.83;;;1.55;;
25657;SDS011;13517;59.320;18.042;2024-01-15T07:39:05;6.13;;;1.55;;
25657;SDS011;13517;59.320;18.042;2024-01-15T07:41:30;5.57;;;1.73;;
25657;SDS011;13517;59.320;18.042;2024-01-15T07:43:57;3.63;;;1.38;;
25657;SDS011;13517;59.320;18.042;2024-01-15T07:46:22;2.85;;;1.13;;
25657;SDS011;13517;59.320;18.042;2024-01-15T07:48:48;1.67;;;1.05;;
25657;SDS011;13517;59.320;18.042;2024-01-15T07:51:13;5.18;;;1.23;;
25657;SDS011;13517;59.320;18.042;2024-01-15T07:53:38;1.23;;;0.95;;
25657;SDS011;13517;59.320;18.042;2024-01-15T07:56:04;1.77;;;1.00;;
25657;SDS011;13517;59.320;18.042;2024-01-15T07:58:30;9.60;;;1.45;;
25657;SDS011;13517;59.320;18.042;2024-01-15T08:00:55;1.88;;;1.17;;
25657;SDS011;13517;59.320;18.042;2024-01-15T08:03:21;2.30;;;1.17;;
25657;SDS011;13517;59.320;18.042;2024-01-15T08:05:46;1.35;;;0.70;;
25657;SDS011;13517;59.320;18.042;2024-01-15T08:08:11;2.05;;;0.88;;
25657;SDS011;13517;59.320;18.042;2024-01-15T08:10:37;1.17;;;0.88;;
25657;SDS011;13517;59.320;18.042;2024-01-15T08:13:02;1.42;;;0.80;;
25657;SDS011;13517;59.320;18.042;2024-01-15T08:15:28;6.07;;;0.98;;
25657;SDS011;13517;59.320;18.042;2024-01-15T08:17:53;5.88;;;1.20;;
25657;SDS011;13517;59.320;18.042;2024-01-15T08:20:19;4.57;;;0.82;;
25657;SDS011;13517;59.320;18.042;2024-01-15T08:22:44;5.85;;;0.98;;
25657;SDS011;13517;59.320;18.042;2024-01-15T08:25:09;2.97;;;0.77;;
25657;SDS011;13517;59.320;18.042;2024-01-15T08:27:36;2.38;;;0.80;;
25657;SDS011;13517;59.320;18.042;2024-01-15T08:30:01;4.32;;;0.80;;
25657;SDS011;13517;59.320;18.042;2024-01-15T08:32:26;3.63;;;0.73;;
25657;SDS011;13517;59.320;18.042;2024-01-15T08:34:52;0.90;;;0.43;;
25657;SDS011;13517;59.320;18.042;2024-01-15T08:37:17;1.13;;;0.60;;
25657;SDS011;13517;59.320;18.042;2024-01-15T08:39:44;2.00;;;0.60;;
25657;SDS011;13517;59.320;18.042;2024-01-15T08:42:09;3.35;;;0.70;;
25657;SDS011;13517;59.320;18.042;2024-01-15T08:44:35;9.27;;;1.08;;
25657;SDS011;13517;59.320;18.042;2024-01-15T08:47:01;2.60;;;0.60;;
25657;SDS011;13517;59.320;18.042;2024-01-15T08:49:28;4.07;;;0.60;;
25657;SDS011;13517;59.320;18.042;2024-01-15T08:51:53;2.35;;;0.75;;
25657;SDS011;13517;59.320;18.042;2024-01-15T08:54:18;2.17;;;0.60;;
25657;SDS011;13517;59.320;18.042;2024-01-15T08:56:44;1.33;;;0.55;;
25657;SDS011;13517;59.320;18.042;2024-01-15T08:59:09;5.35;;;0.70;;
25657;SDS011;13517;59.320;18.042;2024-01-15T09:01:36;1.58;;;0.70;;
25657;SDS011;13517;59.320;18.042;2024-01-15T09:04:03;4.22;;;1.02;;
25657;SDS011;13517;59.320;18.042;2024-01-15T09:06:29;3.30;;;0.88;;
25657;SDS011;13517;59.320;18.042;2024-01-15T09:08:54;5.43;;;1.17;;
25657;SDS011;13517;59.320;18.042;2024-01-15T09:11:20;3.55;;;0.88;;
25657;SDS011;13517;59.320;18.042;2024-01-15T09:13:45;0.98;;;0.57;;
25657;SDS011;13517;59.320;18.042;2024-01-15T09:16:11;5.13;;;1.02;;
25657;SDS011;13517;59.320;18.042;2024-01-15T09:18:36;1.95;;;0.93;;
25657;SDS011;13517;59.320;18.042;2024-01-15T09:21:03;1.00;;;0.50;;
25657;SDS011;13517;59.320;18.042;2024-01-15T09:23:28;0.82;;;0.52;;
25657;SDS011;13517;59.320;18.042;2024-01-15T09:25:54;0.40;;;0.40;;
25657;SDS011;13517;59.320;18.042;2024-01-15T09:28:19;1.73;;;0.82;;
25657;SDS011;13517;59.320;18.042;2024-01-15T09:30:44;3.00;;;0.80;;
25657;SDS011;13517;59.320;18.042;2024-01-15T09:33:10;5.30;;;0.85;;
25657;SDS011;13517;59.320;18.042;2024-01-15T09:35:35;3.28;;;1.02;;
25657;SDS011;13517;59.320;18.042;2024-01-15T09:38:01;3.08;;;0.75;;
25657;SDS011;13517;59.320;18.042;2024-01-15T09:40:28;1.65;;;0.63;;
25657;SDS011;13517;59.320;18.042;2024-01-15T09:42:57;2.88;;;0.60;;
25657;SDS011;13517;59.320;18.042;2024-01-15T09:45:23;0.95;;;0.60;;
25657;SDS011;13517;59.320;18.042;2024-01-15T09:47:48;1.40;;;0.60;;
25657;SDS011;13517;59.320;18.042;2024-01-15T09:50:14;0.70;;;0.70;;
25657;SDS011;13517;59.320;18.042;2024-01-15T09:52:40;16.60;;;1.15;;
25657;SDS011;13517;59.320;18.042;2024-01-15T09:55:06;3.22;;;1.23;;
25657;SDS011;13517;59.320;18.042;2024-01-15T09:57:34;0.98;;;0.68;;
25657;SDS011;13517;59.320;18.042;2024-01-15T10:00:01;0.70;;;0.38;;
25657;SDS011;13517;59.320;18.042;2024-01-15T10:02:31;1.15;;;0.73;;
25657;SDS011;13517;59.320;18.042;2024-01-15T10:04:57;3.15;;;0.85;;
25657;SDS011;13517;59.320;18.042;2024-01-15T10:07:23;3.67;;;1.13;;
25657;SDS011;13517;59.320;18.042;2024-01-15T10:09:50;3.05;;;0.98;;
25657;SDS011;13517;59.320;18.042;2024-01-15T10:12:16;1.88;;;0.88;;
25657;SDS011;13517;59.320;18.042;2024-01-15T10:14:41;1.25;;;0.68;;
25657;SDS011;13517;59.320;18.042;2024-01-15T10:17:14;0.80;;;0.60;;
25657;SDS011;13517;59.320;18.042;2024-01-15T10:19:44;8.52;;;0.90;;
25657;SDS011;13517;59.320;18.042;2024-01-15T10:22:12;4.35;;;1.20;;
25657;SDS011;13517;59.320;18.042;2024-01-15T10:24:39;1.85;;;0.80;;
25657;SDS011;13517;59.320;18.042;2024-01-15T10:27:06;2.65;;;0.70;;
25657;SDS011;13517;59.320;18.042;2024-01-15T10:29:32;7.15;;;1.20;;
25657;SDS011;13517;59.320;18.042;2024-01-15T10:31:58;2.05;;;0.80;;
25657;SDS011;13517;59.320;18.042;2024-01-15T10:34:24;0.90;;;0.57;;
25657;SDS011;13517;59.320;18.042;2024-01-15T10:36:50;1.48;;;0.77;;
25657;SDS011;13517;59.320;18.042;2024-01-15T10:39:20;0.88;;;0.75;;
25657;SDS011;13517;59.320;18.042;2024-01-15T10:41:46;8.30;;;2.00;;
25657;SDS011;13517;59.320;18.042;2024-01-15T10:44:11;1.63;;;0.60;;
25657;SDS011;13517;59.320;18.042;2024-01-15T10:46:37;5.95;;;0.95;;
25657;SDS011;13517;59.320;18.042;2024-01-15T10:49:03;5.95;;;1.27;;
25657;SDS011;13517;59.320;18.042;2024-01-15T10:51:29;5.47;;;0.77;;
25657;SDS011;13517;59.320;18.042;2024-01-15T10:53:54;2.97;;;0.77;;
25657;SDS011;13517;59.320;18.042;2024-01-15T10:56:22;2.83;;;0.73;;
25657;SDS011;13517;59.320;18.042;2024-01-15T10:58:49;2.95;;;0.90;;
25657;SDS011;13517;59.320;18.042;2024-01-15T11:01:15;5.25;;;0.70;;
25657;SDS011;13517;59.320;18.042;2024-01-15T11:03:42;4.53;;;0.90;;
25657;SDS011;13517;59.320;18.042;2024-01-15T11:06:22;3.75;;;0.80;;
25657;SDS011;13517;59.320;18.042;2024-01-15T11:08:50;3.30;;;0.57;;
25657;SDS011;13517;59.320;18.042;2024-01-15T11:11:17;2.20;;;0.80;;
25657;SDS011;13517;59.320;18.042;2024-01-15T11:13:43;1.08;;;0.50;;
25657;SDS011;13517;59.320;18.042;2024-01-15T11:16:11;2.60;;;1.20;;
25657;SDS011;13517;59.320;18.042;2024-01-15T11:23:55;3.72;;;0.82;;
25657;SDS011;13517;59.320;18.042;2024-01-15T11:28:57;2.05;;;1.15;;
25657;SDS011;13517;59.320;18.042;2024-01-15T11:34:05;2.17;;;0.77;;
25657;SDS011;13517;59.320;18.042;2024-01-15T11:37:17;4.38;;;0.80;;
25657;SDS011;13517;59.320;18.042;2024-01-15T11:41:52;0.55;;;0.45;;
25657;SDS011;13517;59.320;18.042;2024-01-15T11:44:20;4.07;;;1.20;;
25657;SDS011;13517;59.320;18.042;2024-01-15T11:46:52;2.83;;;0.50;;
25657;SDS011;13517;59.320;18.042;2024-01-15T11:52:11;3.80;;;1.80;;
25657;SDS011;13517;59.320;18.042;2024-01-15T11:54:37;2.00;;;0.90;;
25657;SDS011;13517;59.320;18.042;2024-01-15T11:57:10;3.88;;;0.70;;
25657;SDS011;13517;59.320;18.042;2024-01-15T11:59:42;2.25;;;0.93;;
25657;SDS011;13517;59.320;18.042;2024-01-15T12:02:08;3.92;;;0.60;;
25657;SDS011;13517;59.320;18.042;2024-01-15T12:04:36;1.33;;;0.60;;
25657;SDS011;13517;59.320;18.042;2024-01-15T12:07:02;2.15;;;0.70;;
25657;SDS011;13517;59.320;18.042;2024-01-15T12:09:27;3.80;;;0.90;;
25657;SDS011;13517;59.320;18.042;2024-01-15T12:11:54;2.90;;;0.50;;
25657;SDS011;13517;59.320;18.042;2024-01-15T12:14:30;1.20;;;0.70;;
25657;SDS011;13517;59.320;18.042;2024-01-15T12:16:56;0.65;;;0.50;;
25657;SDS011;13517;59.320;18.042;2024-01-15T12:19:22;4.30;;;0.93;;
25657;SDS011;13517;59.320;18.042;2024-01-15T12:21:48;0.82;;;0.60;;
25657;SDS011;13517;59.320;18.042;2024-01-15T12:24:16;0.68;;;0.68;;
25657;SDS011;13517;59.320;18.042;2024-01-15T12:26:42;0.60;;;0.50;;
25657;SDS011;13517;59.320;18.042;2024-01-15T12:29:08;1.35;;;0.88;;
25657;SDS011;13517;59.320;18.042;2024-01-15T12:31:34;7.40;;;0.98;;
25657;SDS011;13517;59.320;18.042;2024-01-15T12:34:01;5.85;;;0.70;;
25657;SDS011;13517;59.320;18.042;2024-01-15T12:36:26;1.45;;;0.80;;
25657;SDS011;13517;59.320;18.042;2024-01-15T12:38:52;3.80;;;1.20;;
25657;SDS011;13517;59.320;18.042;2024-01-15T12:41:17;1.30;;;0.50;;
25657;SDS011;13517;59.320;18.042;2024-01-15T12:43:43;0.50;;;0.50;;
25657;SDS011;13517;59.320;18.042;2024-01-15T12:46:08;2.92;;;0.80;;
25657;SDS011;13517;59.320;18.042;2024-01-15T12:48:34;1.48;;;0.70;;
25657;SDS011;13517;59.320;18.042;2024-01-15T12:51:00;0.80;;;0.60;;
25657;SDS011;13517;59.320;18.042;2024-01-15T12:53:26;2.15;;;0.90;;
25657;SDS011;13517;59.320;18.042;2024-01-15T12:55:51;11.43;;;5.55;;
25657;SDS011;13517;59.320;18.042;2024-01-15T12:58:17;2.63;;;0.68;;
25657;SDS011;13517;59.320;18.042;2024-01-15T13:00:42;5.53;;;0.75;;
25657;SDS011;13517;59.320;18.042;2024-01-15T13:03:08;3.15;;;0.80;;
25657;SDS011;13517;59.320;18.042;2024-01-15T13:05:33;4.47;;;1.02;;
25657;SDS011;13517;59.320;18.042;2024-01-15T13:07:59;0.93;;;0.57;;
25657;SDS011;13517;59.320;18.042;2024-01-15T13:10:24;4.70;;;1.00;;
25657;SDS011;13517;59.320;18.042;2024-01-15T13:12:50;2.67;;;0.70;;
25657;SDS011;13517;59.320;18.042;2024-01-15T13:15:16;3.30;;;0.80;;
25657;SDS011;13517;59.320;18.042;2024-01-15T13:17:41;1.25;;;0.75;;
25657;SDS011;13517;59.320;18.042;2024-01-15T13:20:07;3.03;;;0.73;;
25657;SDS011;13517;59.320;18.042;2024-01-15T13:22:33;3.22;;;0.68;;
25657;SDS011;13517;59.320;18.042;2024-01-15T13:24:59;3.28;;;0.88;;
25657;SDS011;13517;59.320;18.042;2024-01-15T13:27:25;0.88;;;0.57;;
25657;SDS011;13517;59.320;18.042;2024-01-15T13:29:50;0.50;;;0.50;;
25657;SDS011;13517;59.320;18.042;2024-01-15T13:32:17;3.28;;;0.80;;
25657;SDS011;13517;59.320;18.042;2024-01-15T13:34:50;2.78;;;0.73;;
25657;SDS011;13517;59.320;18.042;2024-01-15T13:37:16;2.92;;;0.65;;
25657;SDS011;13517;59.320;18.042;2024-01-15T13:39:42;1.25;;;0.50;;
25657;SDS011;13517;59.320;18.042;2024-01-15T13:42:07;0.90;;;0.50;;
25657;SDS011;13517;59.320;18.042;2024-01-15T13:44:36;0.70;;;0.55;;
25657;SDS011;13517;59.320;18.042;2024-01-15T13:47:02;3.40;;;0.70;;
25657;SDS011;13517;59.320;18.042;2024-01-15T13:49:28;3.90;;;0.70;;
25657;SDS011;13517;59.320;18.042;2024-01-15T13:51:54;1.52;;;0.70;;
25657;SDS011;13517;59.320;18.042;2024-01-15T13:54:19;1.63;;;0.77;;
25657;SDS011;13517;59.320;18.042;2024-01-15T13:56:46;2.83;;;0.50;;
25657;SDS011;13517;59.320;18.042;2024-01-15T13:59:12;1.73;;;0.60;;
25657;SDS011;13517;59.320;18.042;2024-01-15T14:01:38;2.45;;;0.70;;
25657;SDS011;13517;59.320;18.042;2024-01-15T14:04:03;1.90;;;0.80;;
25657;SDS011;13517;59.320;18.042;2024-01-15T14:06:29;2.40;;;0.50;;
25657;SDS011;13517;59.320;18.042;2024-01-15T14:08:54;0.52;;;0.52;;
25657;SDS011;13517;59.320;18.042;2024-01-15T14:11:20;1.70;;;0.60;;
25657;SDS011;13517;59.320;18.042;2024-01-15T14:13:45;6.32;;;0.95;;
25657;SDS011;13517;59.320;18.042;2024-01-15T14:16:11;1.30;;;0.55;;
25657;SDS011;13517;59.320;18.042;2024-01-15T14:18:36;2.22;;;0.98;;
25657;SDS011;13517;59.320;18.042;2024-01-15T14:21:02;2.55;;;0.60;;
25657;SDS011;13517;59.320;18.042;2024-01-15T14:23:28;1.17;;;0.60;;
25657;SDS011;13517;59.320;18.042;2024-01-15T14:25:54;3.30;;;0.60;;
25657;SDS011;13517;59.320;18.042;2024-01-15T14:28:19;2.22;;;0.80;;
25657;SDS011;13517;59.320;18.042;2024-01-15T14:30:44;4.53;;;0.90;;
25657;SDS011;13517;59.320;18.042;2024-01-15T14:33:10;1.65;;;1.10;;
25657;SDS011;13517;59.320;18.042;2024-01-15T14:35:35;3.67;;;0.80;;
25657;SDS011;13517;59.320;18.042;2024-01-15T14:38:01;1.17;;;0.60;;
25657;SDS011;13517;59.320;18.042;2024-01-15T14:40:26;3.22;;;0.93;;
25657;SDS011;13517;59.320;18.042;2024-01-15T14:42:52;1.85;;;0.60;;